createdAt,value
2019-03-12T00:00:29.529Z,97.27
2019-03-12T00:02:58.000Z,96.60
2019-03-12T00:05:26.517Z,96.38
2019-03-12T00:07:55.004Z,97.01
2019-03-12T00:10:23.505Z,96.83
2019-03-12T00:12:51.990Z,96.46
2019-03-12T00:15:20.495Z,96.68
2019-03-12T00:17:48.982Z,96.54
2019-03-12T00:20:17.551Z,96.88
2019-03-12T00:22:46.033Z,97.07
2019-03-12T00:25:15.627Z,96.87
2019-03-12T00:27:44.106Z,96.36
2019-03-12T00:30:12.862Z,96.17
2019-03-12T00:32:41.344Z,96.33
2019-03-12T00:35:10.125Z,96.30
2019-03-12T00:37:38.617Z,96.31
2019-03-12T00:40:08.849Z,96.47
2019-03-12T00:42:37.366Z,96.12
2019-03-12T00:45:08.703Z,96.36
2019-03-12T00:47:37.183Z,96.67
2019-03-12T00:50:08.101Z,96.10
2019-03-12T00:52:36.588Z,95.79
2019-03-12T00:55:06.702Z,95.96
2019-03-12T00:57:35.218Z,96.40
2019-03-12T01:00:06.274Z,95.79
2019-03-12T01:02:34.855Z,95.99
2019-03-12T01:05:03.416Z,95.60
2019-03-12T01:07:31.919Z,95.84
2019-03-12T01:10:00.403Z,95.39
2019-03-12T01:12:28.926Z,95.61
2019-03-12T01:14:57.406Z,95.14
2019-03-12T01:17:25.904Z,95.13
2019-03-12T01:19:54.420Z,95.24
2019-03-12T01:22:22.942Z,95.22
2019-03-12T01:24:51.413Z,95.27
2019-03-12T01:27:19.918Z,94.91
2019-03-12T01:29:48.402Z,94.83
2019-03-12T01:32:16.887Z,94.98
2019-03-12T01:34:45.361Z,94.76
2019-03-12T01:37:13.858Z,95.39
2019-03-12T01:39:42.337Z,95.38
2019-03-12T01:42:10.855Z,94.89
2019-03-12T01:44:39.404Z,94.98
2019-03-12T01:47:08.003Z,94.92
2019-03-12T01:49:36.472Z,95.02
2019-03-12T01:52:05.021Z,95.38
2019-03-12T01:54:33.489Z,94.59
2019-03-12T01:57:02.003Z,94.75
2019-03-12T01:59:30.483Z,94.70
2019-03-12T02:01:59.015Z,94.52
2019-03-12T02:04:27.499Z,94.11
2019-03-12T02:06:57.499Z,94.26
2019-03-12T02:09:26.341Z,93.86
2019-03-12T02:11:54.860Z,93.89
2019-03-12T02:14:25.304Z,94.03
2019-03-12T02:16:53.873Z,94.04
2019-03-12T02:19:22.406Z,93.62
2019-03-12T02:21:50.986Z,93.68
2019-03-12T02:24:19.508Z,93.66
2019-03-12T02:26:48.070Z,93.72
2019-03-12T02:29:16.517Z,93.64
2019-03-12T02:31:45.069Z,93.33
2019-03-12T02:34:13.552Z,93.28
2019-03-12T02:36:42.095Z,93.80
2019-03-12T02:39:11.449Z,93.83
2019-03-12T02:41:40.008Z,93.55
2019-03-12T02:44:08.607Z,93.43
2019-03-12T02:46:37.137Z,93.20
2019-03-12T02:49:09.188Z,93.45
2019-03-12T02:51:35.792Z,93.87
2019-03-12T02:54:05.808Z,93.84
2019-03-12T02:56:34.331Z,93.22
2019-03-12T02:59:02.821Z,93.13
2019-03-12T03:01:31.338Z,93.67
2019-03-12T03:03:59.868Z,93.38
2019-03-12T03:06:29.971Z,93.03
2019-03-12T03:08:58.495Z,93.52
2019-03-12T03:11:27.014Z,93.70
2019-03-12T03:13:55.503Z,93.35
2019-03-12T03:16:24.576Z,93.21
2019-03-12T03:18:53.371Z,93.37
2019-03-12T03:21:21.851Z,93.16
2019-03-12T03:23:50.350Z,93.29
2019-03-12T03:26:18.942Z,93.09
2019-03-12T03:28:47.403Z,93.06
2019-03-12T03:31:15.896Z,92.96
2019-03-12T03:33:44.421Z,92.94
2019-03-12T03:36:12.938Z,92.89
2019-03-12T03:38:41.450Z,93.14
2019-03-12T03:41:09.962Z,93.65
2019-03-12T03:43:38.476Z,93.66
2019-03-12T03:46:06.998Z,93.36
2019-03-12T03:48:35.488Z,93.32
2019-03-12T03:51:04.038Z,93.62
2019-03-12T03:53:32.545Z,93.23
2019-03-12T03:56:01.021Z,93.01
2019-03-12T03:58:29.502Z,92.62
2019-03-12T04:00:57.982Z,92.53
2019-03-12T04:03:26.517Z,92.62
2019-03-12T04:05:55.050Z,92.57
2019-03-12T04:08:23.564Z,92.73
2019-03-12T04:10:52.116Z,93.03
2019-03-12T04:13:20.592Z,92.80
2019-03-12T04:15:49.246Z,93.03
2019-03-12T04:18:17.759Z,92.92
2019-03-12T04:20:46.299Z,92.65
2019-03-12T04:23:16.244Z,92.50
2019-03-12T04:25:44.948Z,92.36
2019-03-12T04:28:13.459Z,92.04
2019-03-12T04:30:41.919Z,91.73
2019-03-12T04:33:33.090Z,91.76
2019-03-12T04:36:01.604Z,91.54
2019-03-12T04:38:30.094Z,91.38
2019-03-12T04:40:58.663Z,91.41
2019-03-12T04:43:27.158Z,91.87
2019-03-12T04:45:55.643Z,91.78
2019-03-12T04:48:24.178Z,91.97
2019-03-12T04:50:52.600Z,91.67
2019-03-12T04:53:21.101Z,91.92
2019-03-12T04:55:49.721Z,91.61
2019-03-12T04:58:18.238Z,91.65
2019-03-12T05:00:46.773Z,91.59
2019-03-12T05:03:15.250Z,91.12
2019-03-12T05:05:43.805Z,90.99
2019-03-12T05:08:12.272Z,90.84
2019-03-12T05:10:40.795Z,90.58
2019-03-12T05:13:09.250Z,90.60
2019-03-12T05:15:37.760Z,90.75
2019-03-12T05:18:06.206Z,90.23
2019-03-12T05:20:34.687Z,89.69
2019-03-12T05:23:03.164Z,89.25
2019-03-12T05:25:31.700Z,89.16
2019-03-12T05:28:00.198Z,88.97
2019-03-12T05:30:28.709Z,89.19
2019-03-12T05:32:57.266Z,88.68
2019-03-12T05:35:25.811Z,88.58
2019-03-12T05:37:54.256Z,88.56
2019-03-12T05:40:22.736Z,88.74
2019-03-12T05:42:51.215Z,88.54
2019-03-12T05:45:19.700Z,88.63
2019-03-12T05:47:48.279Z,88.72
2019-03-12T05:50:18.135Z,88.58
2019-03-12T05:52:48.998Z,88.86
2019-03-12T05:55:17.080Z,88.70
2019-03-12T05:57:45.560Z,88.99
2019-03-12T06:00:19.844Z,88.68
2019-03-12T06:02:48.380Z,89.17
2019-03-12T06:05:16.999Z,88.76
2019-03-12T06:07:45.489Z,88.48
2019-03-12T06:10:15.613Z,88.39
2019-03-12T06:12:44.356Z,88.30
2019-03-12T06:15:14.486Z,88.56
2019-03-12T06:17:43.008Z,88.18
2019-03-12T06:20:13.013Z,87.74
2019-03-12T06:22:41.560Z,87.49
2019-03-12T06:25:10.261Z,87.63
2019-03-12T06:27:38.794Z,87.75
2019-03-12T06:30:13.105Z,87.91
2019-03-12T06:32:48.987Z,88.12
2019-03-12T06:35:24.901Z,88.13
2019-03-12T06:37:55.065Z,88.08
2019-03-12T06:40:27.916Z,88.01
2019-03-12T06:43:14.319Z,87.96
2019-03-12T06:45:53.784Z,87.92
2019-03-12T06:48:23.978Z,88.11
2019-03-12T06:51:00.139Z,87.95
2019-03-12T06:53:46.692Z,87.75
2019-03-12T06:56:19.572Z,87.77
2019-03-12T06:58:58.904Z,88.12
2019-03-12T07:01:29.090Z,88.08
2019-03-12T07:04:08.138Z,88.04
2019-03-12T07:06:54.494Z,88.16
2019-03-12T07:09:41.081Z,88.15
2019-03-12T07:12:20.219Z,88.43
2019-03-12T07:14:59.110Z,88.58
2019-03-12T07:17:31.930Z,88.97
2019-03-12T07:20:17.968Z,89.33
2019-03-12T07:22:48.096Z,89.65
2019-03-12T07:25:20.923Z,89.61
2019-03-12T07:27:51.096Z,89.56
2019-03-12T07:30:21.377Z,89.68
2019-03-12T07:32:56.282Z,89.99
2019-03-12T07:35:26.001Z,90.14
2019-03-12T07:37:59.253Z,90.12
2019-03-12T07:40:45.213Z,90.22
2019-03-12T07:43:15.331Z,89.70
2019-03-12T07:45:45.510Z,89.97
2019-03-12T07:48:21.857Z,89.99
2019-03-12T07:51:00.874Z,89.62
2019-03-12T07:53:34.116Z,89.33
2019-03-12T07:56:04.266Z,89.14
2019-03-12T07:58:46.546Z,88.99
2019-03-12T08:01:16.657Z,89.13
2019-03-12T08:03:46.796Z,89.33
2019-03-12T08:06:29.189Z,89.57
2019-03-12T08:08:59.336Z,89.28
2019-03-12T08:11:29.453Z,89.76
2019-03-12T08:14:05.330Z,90.02
2019-03-12T08:16:35.435Z,89.83
2019-03-12T08:19:05.569Z,89.52
2019-03-12T08:21:44.734Z,89.50
2019-03-12T08:24:31.586Z,89.82
2019-03-12T08:27:14.107Z,89.46
2019-03-12T08:29:44.266Z,89.57
2019-03-12T08:32:17.374Z,90.08
2019-03-12T08:35:03.493Z,90.19
2019-03-12T08:37:51.838Z,89.84
2019-03-12T08:40:37.093Z,89.16
2019-03-12T08:43:07.239Z,89.47
2019-03-12T08:45:37.382Z,88.66
2019-03-12T08:48:16.688Z,88.68
2019-03-12T08:50:46.805Z,88.42
2019-03-12T08:53:19.877Z,88.62
2019-03-12T08:56:06.216Z,88.54
2019-03-12T08:58:36.348Z,88.40
2019-03-12T09:01:23.049Z,87.59
2019-03-12T09:03:58.979Z,88.23
2019-03-12T09:06:45.271Z,87.43
2019-03-12T09:09:18.160Z,87.52
2019-03-12T09:11:50.977Z,86.46
2019-03-12T09:14:21.140Z,86.03
2019-03-12T09:17:02.957Z,85.47
2019-03-12T09:19:33.107Z,85.17
2019-03-12T09:22:06.354Z,85.97
2019-03-12T09:24:36.507Z,85.25
2019-03-12T09:27:06.767Z,84.17
2019-03-12T09:29:36.892Z,84.68
2019-03-12T09:32:07.010Z,82.83
2019-03-12T09:34:39.877Z,82.33
2019-03-12T09:37:10.000Z,80.53
2019-03-12T09:39:42.846Z,80.79
2019-03-12T09:42:27.909Z,81.00
2019-03-12T09:44:58.039Z,78.65
2019-03-12T09:47:44.327Z,81.55
2019-03-12T09:50:26.535Z,80.59
2019-03-12T09:53:02.088Z,81.36
2019-03-12T09:55:48.549Z,77.46
2019-03-12T09:58:30.512Z,77.29
2019-03-12T10:01:00.666Z,75.93
2019-03-12T10:03:42.532Z,77.91
2019-03-12T10:06:15.379Z,75.56
2019-03-12T10:08:48.576Z,79.89
2019-03-12T10:11:34.088Z,72.28
2019-03-12T10:14:20.623Z,78.68
2019-03-12T10:16:53.438Z,73.88
2019-03-12T10:19:39.773Z,70.42
2019-03-12T10:22:16.050Z,71.04
2019-03-12T10:24:52.383Z,70.91
2019-03-12T10:27:22.520Z,72.96
2019-03-12T10:29:52.746Z,72.72
2019-03-12T10:32:25.591Z,72.39
2019-03-12T10:34:58.414Z,74.25
2019-03-12T10:37:31.233Z,69.50
2019-03-12T10:40:14.868Z,68.71
2019-03-12T10:42:48.041Z,65.23
2019-03-12T10:45:23.709Z,65.14
2019-03-12T10:47:53.830Z,64.85
2019-03-12T10:50:22.671Z,61.71
2019-03-12T10:52:51.142Z,64.45
2019-03-12T10:55:19.647Z,64.85
2019-03-12T10:57:48.166Z,63.32
2019-03-12T11:00:18.491Z,62.52
2019-03-12T11:02:47.207Z,61.18
2019-03-12T11:05:15.942Z,61.66
2019-03-12T11:07:44.441Z,60.74
2019-03-12T11:10:17.853Z,56.03
2019-03-12T11:12:46.297Z,59.72
2019-03-12T11:15:16.007Z,59.18
2019-03-12T11:17:49.920Z,58.99
2019-03-12T11:20:17.116Z,60.23
2019-03-12T11:22:45.628Z,60.44
2019-03-12T11:25:25.912Z,61.29
2019-03-12T11:27:44.330Z,61.24
2019-03-12T11:30:15.779Z,60.96
2019-03-12T11:32:44.367Z,61.04
2019-03-12T11:35:13.052Z,61.52
2019-03-12T11:37:41.740Z,59.40
2019-03-12T11:40:21.962Z,59.94
2019-03-12T11:42:50.555Z,57.61
2019-03-12T11:45:20.661Z,56.32
2019-03-12T11:47:49.445Z,57.29
2019-03-12T11:50:21.005Z,57.77
2019-03-12T11:52:55.479Z,57.64
2019-03-12T11:55:19.926Z,57.39
2019-03-12T11:57:48.723Z,57.94
2019-03-12T12:00:24.419Z,54.72
2019-03-12T12:02:59.795Z,56.03
2019-03-12T12:05:23.321Z,57.68
2019-03-12T12:07:51.862Z,55.10
2019-03-12T12:10:20.447Z,54.46
2019-03-12T12:12:48.998Z,54.09
2019-03-12T12:15:17.479Z,55.65
2019-03-12T12:17:49.087Z,55.45
2019-03-12T12:20:28.749Z,53.93
2019-03-12T12:22:47.304Z,53.72
2019-03-12T12:25:19.852Z,54.69
2019-03-12T12:27:49.857Z,55.80
2019-03-12T12:30:22.528Z,53.14
2019-03-12T12:32:51.082Z,54.60
2019-03-12T12:35:19.617Z,53.01
2019-03-12T12:37:48.119Z,54.99
2019-03-12T12:40:18.045Z,54.47
2019-03-12T12:42:46.554Z,53.30
2019-03-12T12:45:17.456Z,54.65
2019-03-12T12:47:45.933Z,53.65
2019-03-12T12:50:15.043Z,53.15
2019-03-12T12:52:44.535Z,52.86
2019-03-12T12:55:14.712Z,53.76
2019-03-12T12:57:43.279Z,54.07
2019-03-12T13:00:20.566Z,53.18
2019-03-12T13:02:49.322Z,54.88
2019-03-12T13:05:18.394Z,54.21
2019-03-12T13:07:46.900Z,53.48
2019-03-12T13:10:21.066Z,51.63
2019-03-12T13:12:49.557Z,52.10
2019-03-12T13:15:18.106Z,52.79
2019-03-12T13:17:46.662Z,51.50
2019-03-12T13:20:15.768Z,53.26
2019-03-12T13:22:44.267Z,53.47
2019-03-12T13:25:14.951Z,53.63
2019-03-12T13:27:43.612Z,51.43
2019-03-12T13:30:19.976Z,52.22
2019-03-12T13:32:48.485Z,52.27
2019-03-12T13:35:18.316Z,54.27
2019-03-12T13:37:47.633Z,52.52
2019-03-12T13:40:18.594Z,54.67
2019-03-12T13:42:47.145Z,53.53
2019-03-12T13:45:17.975Z,50.14
2019-03-12T13:47:46.562Z,53.09
2019-03-12T13:50:15.348Z,54.09
2019-03-12T13:52:43.899Z,52.45
2019-03-12T13:55:16.892Z,52.91
2019-03-12T13:57:45.607Z,53.24
2019-03-12T14:00:16.561Z,53.42
2019-03-12T14:02:45.556Z,53.80
2019-03-12T14:05:14.395Z,52.58
2019-03-12T14:07:43.009Z,54.03
2019-03-12T14:10:14.706Z,52.91
2019-03-12T14:12:43.321Z,52.55
2019-03-12T14:15:15.177Z,52.21
2019-03-12T14:17:43.698Z,53.86
2019-03-12T14:20:50.164Z,52.88
2019-03-12T14:23:28.344Z,53.54
2019-03-12T14:25:57.074Z,53.85
2019-03-12T14:28:25.710Z,54.09
2019-03-12T14:30:54.190Z,52.13
2019-03-12T14:33:22.829Z,52.67
2019-03-12T14:35:52.375Z,52.13
2019-03-12T14:38:21.108Z,53.42
2019-03-12T14:40:49.808Z,54.38
2019-03-12T14:43:18.421Z,54.43
2019-03-12T14:45:51.551Z,53.81
2019-03-12T14:48:39.330Z,53.98
2019-03-12T14:51:39.631Z,53.73
2019-03-12T14:54:11.157Z,53.23
2019-03-12T14:56:39.805Z,54.65
2019-03-12T14:59:08.374Z,53.79
2019-03-12T15:01:36.858Z,53.96
2019-03-12T15:04:05.523Z,54.50
2019-03-12T15:06:34.491Z,54.83
2019-03-12T15:09:04.864Z,54.30
2019-03-12T15:11:33.366Z,54.53
2019-03-12T15:14:01.879Z,54.94
2019-03-12T15:16:30.387Z,55.01
2019-03-12T15:18:58.887Z,54.61
2019-03-12T15:21:27.357Z,54.98
2019-03-12T15:23:55.850Z,55.33
2019-03-12T15:26:24.385Z,55.12
2019-03-12T15:28:52.997Z,55.65
2019-03-12T15:31:21.483Z,55.42
2019-03-12T15:33:49.983Z,55.50
2019-03-12T15:36:18.455Z,55.33
2019-03-12T15:38:47.039Z,54.43
2019-03-12T15:41:15.513Z,56.08
2019-03-12T15:43:44.111Z,56.31
2019-03-12T15:46:12.638Z,55.00
2019-03-12T15:48:41.142Z,56.09
2019-03-12T15:51:09.623Z,56.18
2019-03-12T15:53:38.128Z,54.97
2019-03-12T15:56:06.602Z,56.20
2019-03-12T15:58:35.096Z,54.77
2019-03-12T16:01:03.637Z,55.69
2019-03-12T16:03:32.139Z,54.18
2019-03-12T16:06:00.683Z,55.66
2019-03-12T16:08:29.180Z,55.17
2019-03-12T16:10:58.613Z,55.04
2019-03-12T16:13:27.322Z,54.83
2019-03-12T16:15:55.834Z,56.06
2019-03-12T16:18:24.359Z,55.44
2019-03-12T16:20:52.772Z,56.42
2019-03-12T16:23:21.338Z,55.80
2019-03-12T16:25:49.824Z,55.86
2019-03-12T16:28:18.322Z,56.51
2019-03-12T16:30:46.799Z,56.29
2019-03-12T16:33:15.307Z,56.24
2019-03-12T16:35:43.764Z,55.57
2019-03-12T16:38:12.279Z,56.22
2019-03-12T16:40:40.755Z,55.90
2019-03-12T16:43:09.207Z,55.57
2019-03-12T16:45:37.691Z,56.44
2019-03-12T16:48:06.180Z,55.94
2019-03-12T16:50:34.684Z,56.48
2019-03-12T16:53:03.169Z,56.08
2019-03-12T16:55:31.856Z,55.83
2019-03-12T16:58:00.394Z,55.84
2019-03-12T17:00:29.039Z,56.88
2019-03-12T17:02:57.531Z,56.25
2019-03-12T17:05:26.605Z,56.69
2019-03-12T17:07:55.239Z,56.06
2019-03-12T17:10:23.779Z,55.99
2019-03-12T17:12:52.305Z,56.39
2019-03-12T17:15:31.179Z,56.11
2019-03-12T17:17:59.636Z,55.50
2019-03-12T17:20:28.184Z,56.00
2019-03-12T17:22:56.700Z,56.07
2019-03-12T17:25:25.200Z,56.33
2019-03-12T17:27:53.656Z,56.70
2019-03-12T17:30:23.368Z,56.34
2019-03-12T17:32:52.047Z,56.82
2019-03-12T17:35:32.622Z,56.95
2019-03-12T17:38:01.106Z,57.15
2019-03-12T17:40:29.680Z,57.19
2019-03-12T17:42:58.264Z,57.30
2019-03-12T17:45:26.772Z,57.79
2019-03-12T17:47:55.275Z,57.68
2019-03-12T17:50:23.821Z,57.89
2019-03-12T17:52:53.298Z,58.07
2019-03-12T17:55:21.772Z,58.00
2019-03-12T17:57:50.885Z,58.08
2019-03-12T18:00:28.118Z,58.01
2019-03-12T18:02:55.668Z,58.24
2019-03-12T18:05:24.171Z,58.43
2019-03-12T18:07:52.639Z,58.57
2019-03-12T18:10:21.149Z,58.77
2019-03-12T18:12:49.624Z,58.91
2019-03-12T18:15:21.625Z,58.90
2019-03-12T18:17:50.077Z,58.99
2019-03-12T18:20:22.697Z,59.00
2019-03-12T18:22:51.236Z,59.13
2019-03-12T18:25:30.499Z,59.01
2019-03-12T18:27:58.971Z,59.16
2019-03-12T18:30:27.554Z,59.30
2019-03-12T18:32:56.047Z,59.31
2019-03-12T18:35:24.604Z,59.46
2019-03-12T18:37:53.078Z,59.49
2019-03-12T18:40:26.223Z,59.49
2019-03-12T18:42:54.894Z,59.72
2019-03-12T18:45:31.977Z,59.52
2019-03-12T18:48:00.457Z,59.82
2019-03-12T18:50:28.948Z,59.79
2019-03-12T18:52:57.423Z,59.77
2019-03-12T18:55:37.999Z,59.67
2019-03-12T18:58:06.887Z,59.74
2019-03-12T19:00:36.195Z,59.67
2019-03-12T19:03:04.921Z,59.57
2019-03-12T19:05:33.412Z,59.52
2019-03-12T19:08:01.936Z,59.25
2019-03-12T19:10:30.522Z,59.63
2019-03-12T19:12:58.982Z,59.18
2019-03-12T19:15:27.523Z,58.91
2019-03-12T19:17:55.983Z,59.06
2019-03-12T19:20:24.449Z,59.18
2019-03-12T19:22:52.922Z,59.11
2019-03-12T19:25:29.377Z,58.86
2019-03-12T19:28:00.280Z,59.20
2019-03-12T19:30:28.094Z,59.04
2019-03-12T19:33:01.501Z,58.71
2019-03-12T19:35:31.522Z,58.85
2019-03-12T19:38:01.227Z,58.96
2019-03-12T19:40:38.505Z,58.81
2019-03-12T19:43:06.998Z,58.74
2019-03-12T19:45:35.531Z,58.75
2019-03-12T19:48:04.052Z,58.55
2019-03-12T19:50:32.647Z,58.96
2019-03-12T19:53:01.218Z,58.83
2019-03-12T19:55:44.660Z,58.79
2019-03-12T19:58:13.353Z,58.99
2019-03-12T20:00:41.987Z,59.13
2019-03-12T20:03:14.756Z,58.79
2019-03-12T20:05:40.738Z,58.83
2019-03-12T20:08:09.209Z,59.17
2019-03-12T20:11:03.477Z,59.07
2019-03-12T20:13:46.363Z,59.18
2019-03-12T20:16:40.158Z,59.02
2019-03-12T20:19:45.032Z,59.10
2019-03-12T20:22:25.408Z,59.01
2019-03-12T20:25:30.428Z,59.32
2019-03-12T20:28:33.930Z,59.34
2019-03-12T20:31:08.552Z,59.21
2019-03-12T20:34:02.965Z,59.23
2019-03-12T20:36:53.891Z,59.32
2019-03-12T20:39:48.202Z,59.00
2019-03-12T20:42:43.998Z,59.19
2019-03-12T20:45:27.536Z,59.27
2019-03-12T20:48:28.136Z,59.44
2019-03-12T20:51:26.038Z,59.36
2019-03-12T20:54:14.350Z,59.54
2019-03-12T20:57:01.305Z,59.46
2019-03-12T21:00:08.785Z,59.62
2019-03-12T21:03:03.343Z,59.35
2019-03-12T21:05:37.752Z,59.39
2019-03-12T21:08:42.709Z,59.44
2019-03-12T21:11:23.493Z,59.38
2019-03-12T21:14:15.583Z,59.52
2019-03-12T21:16:49.683Z,59.46
2019-03-12T21:19:54.385Z,59.35
2019-03-12T21:22:46.874Z,59.16
2019-03-12T21:25:21.430Z,59.39
2019-03-12T21:27:55.609Z,59.04
2019-03-12T21:30:26.198Z,59.14
2019-03-12T21:32:54.749Z,58.96
2019-03-12T21:35:23.260Z,59.22
2019-03-12T21:37:51.885Z,58.78
2019-03-12T21:40:20.365Z,59.01
2019-03-12T21:42:48.950Z,58.63
2019-03-12T21:45:17.486Z,58.72
2019-03-12T21:47:45.994Z,58.61
2019-03-12T21:50:14.576Z,59.08
2019-03-12T21:52:43.113Z,59.23
2019-03-12T21:55:13.895Z,59.18
2019-03-12T21:57:42.402Z,58.82
2019-03-12T22:00:19.358Z,58.50
2019-03-12T22:02:47.883Z,58.60
2019-03-12T22:05:16.326Z,58.02
2019-03-12T22:07:44.874Z,58.04
2019-03-12T22:10:13.529Z,58.64
2019-03-12T22:12:42.137Z,58.31
2019-03-12T22:15:12.881Z,57.96
2019-03-12T22:17:41.543Z,57.92
2019-03-12T22:20:12.302Z,57.35
2019-03-12T22:22:42.574Z,58.23
2019-03-12T22:25:13.841Z,58.39
2019-03-12T22:27:42.545Z,58.38
2019-03-12T22:30:23.226Z,58.01
2019-03-12T22:32:51.708Z,58.13
2019-03-12T22:35:20.187Z,58.43
2019-03-12T22:37:48.756Z,58.18
2019-03-12T22:40:17.281Z,57.14
2019-03-12T22:42:45.800Z,57.01
2019-03-12T22:45:14.556Z,57.56
2019-03-12T22:47:43.024Z,58.01
2019-03-12T22:50:17.615Z,57.18
2019-03-12T22:52:46.099Z,57.12
2019-03-12T22:55:15.047Z,57.46
2019-03-12T22:57:43.487Z,56.87
2019-03-12T23:00:14.117Z,56.83
2019-03-12T23:02:42.802Z,57.12
2019-03-12T23:05:12.001Z,57.59
2019-03-12T23:07:40.486Z,57.40
2019-03-12T23:10:12.953Z,56.56
2019-03-12T23:12:41.436Z,57.04
2019-03-12T23:15:19.782Z,52.81
2019-03-12T23:17:48.260Z,53.34
2019-03-12T23:20:19.594Z,51.90
2019-03-12T23:22:48.150Z,51.58
2019-03-12T23:25:16.658Z,51.69
2019-03-12T23:27:45.126Z,52.33
2019-03-12T23:30:18.242Z,51.40
2019-03-12T23:32:46.715Z,52.14
2019-03-12T23:35:15.551Z,53.03
2019-03-12T23:37:44.088Z,52.66
2019-03-12T23:40:17.787Z,52.76
2019-03-12T23:42:46.363Z,51.76
2019-03-12T23:45:16.496Z,51.69
2019-03-12T23:47:45.804Z,51.57
2019-03-12T23:50:16.612Z,51.49
2019-03-12T23:52:45.731Z,51.13
2019-03-12T23:55:19.217Z,52.80
2019-03-12T23:57:47.865Z,50.91
